Weather History for KLKV - March, 2013

Change the Weather History Date:

Wednesday, March 20, 2013

  Actual Average Record
Temperature  
Mean Temperature 40 °F -  
Max Temperature 51 °F 51 °F 71 °F (2004)
Min Temperature 30 °F 26 °F 11 °F (1955)
Degree Days  
Heating Degree Days 24    
Moisture  
Dew Point 35 °F    
Average Humidity 81    
Maximum Humidity 100    
Minimum Humidity 54    
Precipitation  
Precipitation 0.11 in - - ()
Sea Level Pressure  
Sea Level Pressure 29.89 in    
Wind  
Wind Speed 17 mph (SSW)    
Max Wind Speed 32 mph    
Max Gust Speed 44 mph    
Visibility 10 miles    
Events      
Averages and records for this station are not official NWS values.
T = Trace of Precipitation, MM = Missing Value Source: NWS Daily Summary

Daily Weather History Graph

Daily Weather History Graph

Search for Another Location

Airport or City:

Trip Planner

Search our weather history database for the weather conditions in past years. The results will help you decide how hot, cold, wet, or windy it might be!

Date:

Astronomy

Mar. 20, 2013 Rise Set
Actual Time 7:04 AM PDT 7:14 PM PDT
Civil Twilight 6:36 AM PDT 7:42 PM PDT
Nautical Twilight 6:03 AM PDT 8:14 PM PDT
Astronomical Twilight 5:30 AM PDT 8:48 PM PDT
Moon 12:48 PM PDT (3/20) 2:53 AM PDT (3/20)
Length of Visible Light 13h 05m
Length of Day
12h 09m
First Quarter, 60% of the Moon is Illuminated
Mar 20
First Quarter
Mar 27
Full
Apr 2
Last Quarter
Apr 10
New
Apr 18
First Quarter

Hourly Weather History & Observations

Time (PDT) Temp. Windchill Dew Point Humidity Pressure Visibility Wind Dir Wind Speed Gust Speed Precip Events Conditions
12:15 AM 41.0 °F 32.5 °F 39.2 °F 93% 29.93 in 10.0 mi South 17.3 mph 25.3 mph N/A   Unknown
12:35 AM 41.0 °F 33.1 °F 39.2 °F 93% 29.93 in 10.0 mi South 15.0 mph - N/A   Unknown
12:55 AM 41.0 °F 32.2 °F 39.2 °F 93% 29.93 in 10.0 mi South 18.4 mph 24.2 mph N/A   Unknown
1:15 AM 41.0 °F 32.2 °F 39.2 °F 93% 29.92 in 7.0 mi South 18.4 mph - N/A   Unknown
1:35 AM 41.0 °F 32.5 °F 37.4 °F 87% 29.91 in 10.0 mi South 17.3 mph - N/A   Unknown
1:55 AM 41.0 °F 33.1 °F 39.2 °F 93% 29.92 in 10.0 mi South 15.0 mph 21.9 mph N/A   Unknown
2:15 AM 41.0 °F 33.5 °F 39.2 °F 93% 29.91 in 10.0 mi South 13.8 mph - N/A   Unknown
2:35 AM 41.0 °F 34.3 °F 39.2 °F 93% 29.91 in 10.0 mi South 11.5 mph - N/A   Unknown
2:55 AM 41.0 °F 35.8 °F 37.4 °F 87% 29.90 in 10.0 mi SSW 8.1 mph - N/A   Unknown
3:15 AM 41.0 °F 34.3 °F 39.2 °F 93% 29.90 in 10.0 mi South 11.5 mph - N/A   Unknown
3:35 AM 41.0 °F 33.9 °F 37.4 °F 87% 29.89 in 10.0 mi South 12.7 mph - N/A   Unknown
3:55 AM 41.0 °F 33.9 °F 37.4 °F 87% 29.89 in 10.0 mi South 12.7 mph - N/A   Unknown
4:15 AM 39.2 °F 32.0 °F 37.4 °F 93% 29.88 in 10.0 mi SSE 11.5 mph - N/A   Unknown
4:35 AM 39.2 °F 31.2 °F 39.2 °F 100% 29.88 in 10.0 mi SSE 13.8 mph - N/A   Unknown
4:55 AM 41.0 °F 32.8 °F 37.4 °F 87% 29.87 in 10.0 mi SSE 16.1 mph 23.0 mph N/A   Unknown
5:15 AM 41.0 °F 33.9 °F 37.4 °F 87% 29.87 in 10.0 mi SSE 12.7 mph - N/A   Unknown
5:35 AM 41.0 °F 33.9 °F 37.4 °F 87% 29.87 in 10.0 mi SSE 12.7 mph 17.3 mph N/A   Unknown
5:55 AM 41.0 °F 34.3 °F 37.4 °F 87% 29.87 in 10.0 mi SSE 11.5 mph - N/A   Unknown
6:15 AM 41.0 °F 33.9 °F 37.4 °F 87% 29.88 in 10.0 mi South 12.7 mph - N/A   Unknown
6:35 AM 41.0 °F 33.9 °F 37.4 °F 87% 29.88 in 10.0 mi South 12.7 mph - N/A   Unknown
6:55 AM 41.0 °F 34.3 °F 37.4 °F 87% 29.88 in 10.0 mi South 11.5 mph - N/A   Unknown
7:15 AM 39.2 °F 31.2 °F 37.4 °F 93% 29.89 in 3.0 mi South 13.8 mph - N/A   Unknown
7:35 AM 39.2 °F 30.8 °F 37.4 °F 93% 29.89 in 3.0 mi South 15.0 mph 23.0 mph 0.01 in   Unknown
7:55 AM 39.2 °F 32.5 °F 37.4 °F 93% 29.90 in 10.0 mi South 10.4 mph - 0.01 in   Unknown
8:15 AM 39.2 °F 29.8 °F 37.4 °F 93% 29.89 in 10.0 mi SSE 18.4 mph 23.0 mph N/A   Unknown
8:55 AM 39.2 °F 30.2 °F 37.4 °F 93% 29.89 in 10.0 mi SSE 17.3 mph 25.3 mph N/A   Unknown
9:15 AM 39.2 °F 29.8 °F 39.2 °F 100% 29.89 in 10.0 mi South 18.4 mph 25.3 mph N/A   Unknown
9:35 AM 41.0 °F 32.5 °F 39.2 °F 93% 29.88 in 10.0 mi South 17.3 mph - N/A   Unknown
9:55 AM 42.8 °F 34.0 °F 39.2 °F 87% 29.88 in 10.0 mi South 20.7 mph 26.5 mph N/A   Unknown
10:15 AM 44.6 °F 36.4 °F 39.2 °F 81% 29.88 in 10.0 mi South 20.7 mph 28.8 mph N/A   Unknown
10:35 AM 42.8 °F 34.8 °F 39.2 °F 87% 29.89 in 10.0 mi SSE 17.3 mph 25.3 mph N/A   Unknown
10:55 AM 42.8 °F 34.5 °F 39.2 °F 87% 29.88 in 10.0 mi SSE 18.4 mph 26.5 mph N/A   Unknown
11:15 AM 42.8 °F 33.8 °F 39.2 °F 87% 29.88 in 10.0 mi South 21.9 mph - N/A   Unknown
11:35 AM 44.6 °F 36.9 °F 39.2 °F 81% 29.88 in 10.0 mi South 18.4 mph 27.6 mph N/A   Unknown
11:55 AM 44.6 °F 36.9 °F 37.4 °F 76% 29.87 in 10.0 mi South 18.4 mph 26.5 mph N/A   Unknown
12:15 PM 44.6 °F 36.1 °F 39.2 °F 81% 29.86 in 10.0 mi SSE 21.9 mph 25.3 mph N/A   Unknown
12:35 PM 46.4 °F 38.5 °F 37.4 °F 71% 29.86 in 10.0 mi SSW 21.9 mph 32.2 mph N/A   Unknown
12:55 PM 46.4 °F 37.5 °F 35.6 °F 66% 29.86 in 10.0 mi SSW 27.6 mph 36.8 mph N/A   Unknown
1:15 PM 48.2 °F - 37.4 °F 66% 29.85 in 10.0 mi SSW 26.5 mph 33.4 mph N/A   Unknown
1:35 PM 48.2 °F - 35.6 °F 62% 29.85 in 10.0 mi SSW 25.3 mph 34.5 mph N/A   Unknown
1:55 PM 48.2 °F - 35.6 °F 62% 29.84 in 10.0 mi South 28.8 mph 36.8 mph N/A   Unknown
2:15 PM 51.8 °F - 37.4 °F 58% 29.84 in 10.0 mi SSW 24.2 mph 38.0 mph N/A   Unknown
2:35 PM 51.8 °F - 37.4 °F 58% 29.82 in 10.0 mi SSW 27.6 mph 43.7 mph N/A   Unknown
2:55 PM 50.0 °F - 35.6 °F 58% 29.82 in 10.0 mi SSW 25.3 mph 36.8 mph N/A   Unknown
3:15 PM 50.0 °F - 35.6 °F 58% 29.81 in 10.0 mi SSW 32.2 mph 41.4 mph N/A   Unknown
3:35 PM 51.8 °F - 35.6 °F 54% 29.82 in 10.0 mi SSW 28.8 mph 35.7 mph N/A   Unknown
3:55 PM 48.2 °F - 35.6 °F 62% 29.82 in 10.0 mi SW 27.6 mph 35.7 mph N/A   Unknown
4:15 PM 42.8 °F 33.8 °F 37.4 °F 81% 29.85 in 5.0 mi West 21.9 mph 33.4 mph 0.01 in   Unknown
4:35 PM 41.0 °F 34.3 °F 37.4 °F 87% 29.84 in 9.0 mi SW 11.5 mph - 0.03 in   Unknown
4:55 PM 41.0 °F 32.8 °F 37.4 °F 87% 29.84 in 10.0 mi SW 16.1 mph - 0.06 in   Unknown
5:15 PM 41.0 °F 33.9 °F 39.2 °F 93% 29.84 in 8.0 mi WSW 12.7 mph 25.3 mph 0.04 in   Unknown
5:35 PM 42.8 °F 34.3 °F 39.2 °F 87% 29.85 in 10.0 mi West 19.6 mph 24.2 mph 0.04 in   Unknown
5:55 PM 42.8 °F 35.1 °F 39.2 °F 87% 29.84 in 9.0 mi WSW 16.1 mph 24.2 mph 0.04 in   Unknown
6:15 PM 41.0 °F 31.6 °F 37.4 °F 87% 29.85 in 10.0 mi WSW 20.7 mph 26.5 mph N/A   Unknown
6:35 PM 41.0 °F 34.3 °F 37.4 °F 87% 29.85 in 10.0 mi SW 11.5 mph - N/A   Unknown
6:55 PM 39.2 °F 28.5 °F 35.6 °F 87% 29.86 in 10.0 mi WSW 24.2 mph 32.2 mph N/A   Unknown
7:15 PM 39.2 °F 29.6 °F 32.0 °F 75% 29.86 in 10.0 mi West 19.6 mph 27.6 mph N/A   Unknown
7:35 PM 37.4 °F 27.5 °F 30.2 °F 75% 29.87 in 10.0 mi West 18.4 mph 27.6 mph N/A   Unknown
7:55 PM 37.4 °F 25.0 °F 30.2 °F 75% 29.87 in 10.0 mi West 29.9 mph 39.1 mph N/A   Unknown
8:15 PM 35.6 °F 23.4 °F 28.4 °F 75% 29.89 in 10.0 mi West 25.3 mph 36.8 mph N/A   Unknown
8:35 PM 35.6 °F 24.2 °F 28.4 °F 75% 29.91 in 10.0 mi West 21.9 mph 35.7 mph N/A   Unknown
8:55 PM 33.8 °F 23.2 °F 28.4 °F 81% 29.93 in 10.0 mi West 17.3 mph 26.5 mph N/A   Unknown
9:15 PM 33.8 °F 23.9 °F 26.6 °F 75% 29.95 in 10.0 mi West 15.0 mph 23.0 mph N/A   Unknown
9:35 PM 33.8 °F 21.9 °F 24.8 °F 70% 29.96 in 10.0 mi West 21.9 mph 31.1 mph N/A   Unknown
9:55 PM 33.8 °F 27.7 °F 24.8 °F 70% 29.99 in 10.0 mi NW 6.9 mph - N/A   Unknown
10:15 PM 32.0 °F 24.8 °F 24.8 °F 75% 30.00 in 10.0 mi NW 8.1 mph - N/A   Unknown
10:35 PM 30.2 °F 21.9 °F 24.8 °F 80% 30.01 in 10.0 mi NNW 9.2 mph - N/A   Unknown
11:15 PM 32.0 °F 19.5 °F 21.2 °F 64% 30.02 in 10.0 mi West 21.9 mph 28.8 mph N/A   Unknown
11:35 PM 30.2 °F 17.8 °F 19.4 °F 64% 30.01 in 10.0 mi WSW 19.6 mph 27.6 mph N/A   Unknown
11:55 PM 30.2 °F 21.9 °F 19.4 °F 64% 30.02 in 10.0 mi West 9.2 mph - N/A   Unknown